sensor_id;sensor_type;location;lat;lon;timestamp;P1;durP1;ratioP1;P2;durP2;ratioP2
15061;SDS011;7630;50.306;8.566;2024-01-16T00:01:16;5.17;;;3.90;;
15061;SDS011;7630;50.306;8.566;2024-01-16T00:05:18;13.83;;;5.57;;
15061;SDS011;7630;50.306;8.566;2024-01-16T00:09:19;10.37;;;4.87;;
15061;SDS011;7630;50.306;8.566;2024-01-16T00:13:20;5.30;;;4.70;;
15061;SDS011;7630;50.306;8.566;2024-01-16T00:17:21;8.73;;;4.43;;
15061;SDS011;7630;50.306;8.566;2024-01-16T00:21:22;15.67;;;6.63;;
15061;SDS011;7630;50.306;8.566;2024-01-16T00:25:24;13.33;;;5.70;;
15061;SDS011;7630;50.306;8.566;2024-01-16T00:29:25;10.07;;;5.13;;
15061;SDS011;7630;50.306;8.566;2024-01-16T00:33:26;8.00;;;6.47;;
15061;SDS011;7630;50.306;8.566;2024-01-16T00:37:28;10.00;;;5.40;;
15061;SDS011;7630;50.306;8.566;2024-01-16T00:41:29;8.43;;;5.33;;
15061;SDS011;7630;50.306;8.566;2024-01-16T00:45:30;7.00;;;6.00;;
15061;SDS011;7630;50.306;8.566;2024-01-16T00:49:31;6.17;;;5.57;;
15061;SDS011;7630;50.306;8.566;2024-01-16T00:53:32;7.63;;;6.00;;
15061;SDS011;7630;50.306;8.566;2024-01-16T00:57:34;9.50;;;5.90;;
15061;SDS011;7630;50.306;8.566;2024-01-16T01:01:37;12.20;;;6.83;;
15061;SDS011;7630;50.306;8.566;2024-01-16T01:05:38;7.63;;;6.13;;
15061;SDS011;7630;50.306;8.566;2024-01-16T01:09:40;15.73;;;6.77;;
15061;SDS011;7630;50.306;8.566;2024-01-16T01:13:41;8.30;;;5.53;;
15061;SDS011;7630;50.306;8.566;2024-01-16T01:17:42;9.17;;;7.57;;
15061;SDS011;7630;50.306;8.566;2024-01-16T01:21:43;7.23;;;6.27;;
15061;SDS011;7630;50.306;8.566;2024-01-16T01:25:44;15.30;;;6.70;;
15061;SDS011;7630;50.306;8.566;2024-01-16T01:29:45;7.50;;;6.50;;
15061;SDS011;7630;50.306;8.566;2024-01-16T01:33:47;7.63;;;6.17;;
15061;SDS011;7630;50.306;8.566;2024-01-16T01:37:48;8.00;;;7.03;;
15061;SDS011;7630;50.306;8.566;2024-01-16T01:41:49;7.33;;;6.47;;
15061;SDS011;7630;50.306;8.566;2024-01-16T01:45:56;11.37;;;7.10;;
15061;SDS011;7630;50.306;8.566;2024-01-16T01:49:56;10.37;;;7.67;;
15061;SDS011;7630;50.306;8.566;2024-01-16T01:53:57;11.07;;;7.13;;
15061;SDS011;7630;50.306;8.566;2024-01-16T01:57:59;10.63;;;7.20;;
15061;SDS011;7630;50.306;8.566;2024-01-16T02:02:03;12.27;;;8.40;;
15061;SDS011;7630;50.306;8.566;2024-01-16T02:06:05;10.13;;;7.00;;
15061;SDS011;7630;50.306;8.566;2024-01-16T02:10:07;9.37;;;7.87;;
15061;SDS011;7630;50.306;8.566;2024-01-16T02:14:09;9.90;;;8.00;;
15061;SDS011;7630;50.306;8.566;2024-01-16T02:18:10;9.30;;;7.50;;
15061;SDS011;7630;50.306;8.566;2024-01-16T02:22:14;10.17;;;7.43;;
15061;SDS011;7630;50.306;8.566;2024-01-16T02:26:17;9.67;;;7.07;;
15061;SDS011;7630;50.306;8.566;2024-01-16T02:30:18;13.53;;;8.33;;
15061;SDS011;7630;50.306;8.566;2024-01-16T02:34:19;11.70;;;8.30;;
15061;SDS011;7630;50.306;8.566;2024-01-16T02:38:21;14.17;;;8.80;;
15061;SDS011;7630;50.306;8.566;2024-01-16T02:42:22;10.50;;;9.10;;
15061;SDS011;7630;50.306;8.566;2024-01-16T02:46:23;9.80;;;8.97;;
15061;SDS011;7630;50.306;8.566;2024-01-16T02:50:24;20.00;;;13.50;;
15061;SDS011;7630;50.306;8.566;2024-01-16T02:54:25;13.27;;;11.63;;
15061;SDS011;7630;50.306;8.566;2024-01-16T02:58:26;13.07;;;11.70;;
15061;SDS011;7630;50.306;8.566;2024-01-16T03:02:28;14.20;;;11.27;;
15061;SDS011;7630;50.306;8.566;2024-01-16T03:06:30;14.10;;;12.67;;
15061;SDS011;7630;50.306;8.566;2024-01-16T03:10:32;11.97;;;10.70;;
15061;SDS011;7630;50.306;8.566;2024-01-16T03:14:33;12.23;;;10.97;;
15061;SDS011;7630;50.306;8.566;2024-01-16T03:18:36;17.77;;;10.77;;
15061;SDS011;7630;50.306;8.566;2024-01-16T03:22:38;13.83;;;11.17;;
15061;SDS011;7630;50.306;8.566;2024-01-16T03:26:39;11.97;;;10.80;;
15061;SDS011;7630;50.306;8.566;2024-01-16T03:30:41;14.73;;;10.63;;
15061;SDS011;7630;50.306;8.566;2024-01-16T03:34:42;15.40;;;10.70;;
15061;SDS011;7630;50.306;8.566;2024-01-16T03:38:43;11.67;;;10.33;;
15061;SDS011;7630;50.306;8.566;2024-01-16T03:42:47;15.83;;;10.30;;
15061;SDS011;7630;50.306;8.566;2024-01-16T03:46:48;14.17;;;10.53;;
15061;SDS011;7630;50.306;8.566;2024-01-16T03:50:49;12.40;;;10.90;;
15061;SDS011;7630;50.306;8.566;2024-01-16T03:54:51;15.07;;;11.97;;
15061;SDS011;7630;50.306;8.566;2024-01-16T03:58:52;15.20;;;10.93;;
15061;SDS011;7630;50.306;8.566;2024-01-16T04:02:53;12.37;;;10.90;;
15061;SDS011;7630;50.306;8.566;2024-01-16T04:06:55;16.10;;;9.37;;
15061;SDS011;7630;50.306;8.566;2024-01-16T04:10:56;10.60;;;9.57;;
15061;SDS011;7630;50.306;8.566;2024-01-16T04:14:57;19.30;;;9.43;;
15061;SDS011;7630;50.306;8.566;2024-01-16T04:18:58;16.57;;;9.50;;
15061;SDS011;7630;50.306;8.566;2024-01-16T04:23:00;12.70;;;9.83;;
15061;SDS011;7630;50.306;8.566;2024-01-16T04:27:01;16.00;;;10.93;;
15061;SDS011;7630;50.306;8.566;2024-01-16T04:31:02;11.57;;;8.80;;
15061;SDS011;7630;50.306;8.566;2024-01-16T04:35:04;10.57;;;9.57;;
15061;SDS011;7630;50.306;8.566;2024-01-16T04:39:06;12.37;;;9.33;;
15061;SDS011;7630;50.306;8.566;2024-01-16T04:43:07;12.37;;;8.73;;
15061;SDS011;7630;50.306;8.566;2024-01-16T04:47:08;11.53;;;9.10;;
15061;SDS011;7630;50.306;8.566;2024-01-16T04:51:09;12.70;;;9.03;;
15061;SDS011;7630;50.306;8.566;2024-01-16T04:55:10;12.77;;;9.03;;
15061;SDS011;7630;50.306;8.566;2024-01-16T04:59:11;10.30;;;8.07;;
15061;SDS011;7630;50.306;8.566;2024-01-16T05:03:14;15.03;;;10.40;;
15061;SDS011;7630;50.306;8.566;2024-01-16T05:07:15;14.77;;;8.80;;
15061;SDS011;7630;50.306;8.566;2024-01-16T05:11:18;12.20;;;8.33;;
15061;SDS011;7630;50.306;8.566;2024-01-16T05:15:19;14.20;;;9.03;;
15061;SDS011;7630;50.306;8.566;2024-01-16T05:19:20;13.07;;;8.87;;
15061;SDS011;7630;50.306;8.566;2024-01-16T05:23:22;11.87;;;9.63;;
15061;SDS011;7630;50.306;8.566;2024-01-16T05:27:23;14.90;;;9.83;;
15061;SDS011;7630;50.306;8.566;2024-01-16T05:31:24;13.73;;;11.00;;
15061;SDS011;7630;50.306;8.566;2024-01-16T05:35:25;14.40;;;9.13;;
15061;SDS011;7630;50.306;8.566;2024-01-16T05:39:26;17.40;;;9.80;;
15061;SDS011;7630;50.306;8.566;2024-01-16T05:43:28;14.20;;;8.80;;
15061;SDS011;7630;50.306;8.566;2024-01-16T05:47:30;16.30;;;10.87;;
15061;SDS011;7630;50.306;8.566;2024-01-16T05:51:31;18.63;;;9.73;;
15061;SDS011;7630;50.306;8.566;2024-01-16T05:55:32;10.43;;;9.33;;
15061;SDS011;7630;50.306;8.566;2024-01-16T05:59:38;14.73;;;10.03;;
15061;SDS011;7630;50.306;8.566;2024-01-16T06:03:39;10.03;;;9.03;;
15061;SDS011;7630;50.306;8.566;2024-01-16T06:07:41;14.67;;;9.17;;
15061;SDS011;7630;50.306;8.566;2024-01-16T06:11:42;12.13;;;9.50;;
15061;SDS011;7630;50.306;8.566;2024-01-16T06:15:43;18.63;;;9.30;;
15061;SDS011;7630;50.306;8.566;2024-01-16T06:19:45;12.83;;;8.67;;
15061;SDS011;7630;50.306;8.566;2024-01-16T06:23:47;13.43;;;10.00;;
15061;SDS011;7630;50.306;8.566;2024-01-16T06:27:48;13.63;;;8.63;;
15061;SDS011;7630;50.306;8.566;2024-01-16T06:31:50;10.17;;;9.20;;
15061;SDS011;7630;50.306;8.566;2024-01-16T06:35:51;8.33;;;7.63;;
15061;SDS011;7630;50.306;8.566;2024-01-16T06:39:54;12.27;;;8.73;;
15061;SDS011;7630;50.306;8.566;2024-01-16T06:43:55;15.90;;;8.87;;
15061;SDS011;7630;50.306;8.566;2024-01-16T06:47:56;9.50;;;8.50;;
15061;SDS011;7630;50.306;8.566;2024-01-16T06:51:58;14.80;;;8.23;;
15061;SDS011;7630;50.306;8.566;2024-01-16T06:55:59;10.00;;;8.13;;
15061;SDS011;7630;50.306;8.566;2024-01-16T07:00:00;9.83;;;8.00;;
15061;SDS011;7630;50.306;8.566;2024-01-16T07:04:01;10.27;;;7.97;;
15061;SDS011;7630;50.306;8.566;2024-01-16T07:08:03;14.93;;;8.93;;
15061;SDS011;7630;50.306;8.566;2024-01-16T07:12:04;10.10;;;8.77;;
15061;SDS011;7630;50.306;8.566;2024-01-16T07:16:09;20.00;;;9.50;;
15061;SDS011;7630;50.306;8.566;2024-01-16T07:20:14;15.57;;;9.33;;
15061;SDS011;7630;50.306;8.566;2024-01-16T07:24:16;10.37;;;8.13;;
15061;SDS011;7630;50.306;8.566;2024-01-16T07:28:17;14.17;;;9.07;;
15061;SDS011;7630;50.306;8.566;2024-01-16T07:32:18;9.00;;;8.10;;
15061;SDS011;7630;50.306;8.566;2024-01-16T07:36:19;16.57;;;8.63;;
15061;SDS011;7630;50.306;8.566;2024-01-16T07:40:20;14.53;;;9.10;;
15061;SDS011;7630;50.306;8.566;2024-01-16T07:44:22;13.77;;;8.83;;
15061;SDS011;7630;50.306;8.566;2024-01-16T07:48:23;9.53;;;7.53;;
15061;SDS011;7630;50.306;8.566;2024-01-16T07:52:25;12.60;;;8.23;;
15061;SDS011;7630;50.306;8.566;2024-01-16T07:56:26;12.60;;;7.43;;
15061;SDS011;7630;50.306;8.566;2024-01-16T08:00:27;10.07;;;8.13;;
15061;SDS011;7630;50.306;8.566;2024-01-16T08:04:28;10.57;;;8.63;;
15061;SDS011;7630;50.306;8.566;2024-01-16T08:08:29;13.63;;;8.07;;
15061;SDS011;7630;50.306;8.566;2024-01-16T08:12:32;9.33;;;8.00;;
15061;SDS011;7630;50.306;8.566;2024-01-16T08:16:33;13.83;;;8.20;;
15061;SDS011;7630;50.306;8.566;2024-01-16T08:20:34;11.97;;;7.13;;
15061;SDS011;7630;50.306;8.566;2024-01-16T08:24:36;12.70;;;7.73;;
15061;SDS011;7630;50.306;8.566;2024-01-16T08:28:38;21.93;;;13.37;;
15061;SDS011;7630;50.306;8.566;2024-01-16T08:32:39;9.83;;;7.13;;
15061;SDS011;7630;50.306;8.566;2024-01-16T08:36:40;6.93;;;6.30;;
15061;SDS011;7630;50.306;8.566;2024-01-16T08:40:41;11.17;;;7.53;;
15061;SDS011;7630;50.306;8.566;2024-01-16T08:44:43;12.43;;;6.30;;
15061;SDS011;7630;50.306;8.566;2024-01-16T08:48:44;13.03;;;9.53;;
15061;SDS011;7630;50.306;8.566;2024-01-16T08:52:45;17.23;;;9.67;;
15061;SDS011;7630;50.306;8.566;2024-01-16T08:56:46;10.83;;;7.47;;
15061;SDS011;7630;50.306;8.566;2024-01-16T09:00:47;17.43;;;8.10;;
15061;SDS011;7630;50.306;8.566;2024-01-16T09:04:49;10.37;;;6.53;;
15061;SDS011;7630;50.306;8.566;2024-01-16T09:08:51;8.53;;;6.33;;
15061;SDS011;7630;50.306;8.566;2024-01-16T09:12:52;8.43;;;6.30;;
15061;SDS011;7630;50.306;8.566;2024-01-16T09:16:53;10.00;;;7.07;;
15061;SDS011;7630;50.306;8.566;2024-01-16T09:20:55;9.67;;;5.73;;
15061;SDS011;7630;50.306;8.566;2024-01-16T09:24:57;8.80;;;5.97;;
15061;SDS011;7630;50.306;8.566;2024-01-16T09:28:58;11.60;;;5.50;;
15061;SDS011;7630;50.306;8.566;2024-01-16T09:32:59;8.60;;;5.47;;
15061;SDS011;7630;50.306;8.566;2024-01-16T09:37:00;10.63;;;5.73;;
15061;SDS011;7630;50.306;8.566;2024-01-16T09:41:04;9.13;;;5.40;;
15061;SDS011;7630;50.306;8.566;2024-01-16T09:45:05;7.23;;;6.53;;
15061;SDS011;7630;50.306;8.566;2024-01-16T09:49:10;6.27;;;5.37;;
15061;SDS011;7630;50.306;8.566;2024-01-16T09:53:12;6.00;;;4.97;;
15061;SDS011;7630;50.306;8.566;2024-01-16T09:57:13;5.70;;;4.97;;
15061;SDS011;7630;50.306;8.566;2024-01-16T10:01:16;13.27;;;4.97;;
15061;SDS011;7630;50.306;8.566;2024-01-16T10:05:17;5.87;;;5.00;;
15061;SDS011;7630;50.306;8.566;2024-01-16T10:09:18;9.53;;;5.10;;
15061;SDS011;7630;50.306;8.566;2024-01-16T10:13:19;8.93;;;4.90;;
15061;SDS011;7630;50.306;8.566;2024-01-16T10:17:22;5.97;;;5.03;;
15061;SDS011;7630;50.306;8.566;2024-01-16T10:21:24;13.73;;;5.33;;
15061;SDS011;7630;50.306;8.566;2024-01-16T10:25:27;7.83;;;4.87;;
15061;SDS011;7630;50.306;8.566;2024-01-16T10:29:29;5.97;;;4.27;;
15061;SDS011;7630;50.306;8.566;2024-01-16T10:33:35;7.47;;;4.57;;
15061;SDS011;7630;50.306;8.566;2024-01-16T10:41:57;6.00;;;3.90;;
15061;SDS011;7630;50.306;8.566;2024-01-16T10:46:06;8.60;;;4.67;;
15061;SDS011;7630;50.306;8.566;2024-01-16T10:50:02;4.20;;;3.80;;
15061;SDS011;7630;50.306;8.566;2024-01-16T10:54:06;5.00;;;4.13;;
15061;SDS011;7630;50.306;8.566;2024-01-16T10:58:11;6.03;;;3.93;;
15061;SDS011;7630;50.306;8.566;2024-01-16T11:02:14;4.97;;;4.37;;
15061;SDS011;7630;50.306;8.566;2024-01-16T11:06:17;11.27;;;4.70;;
15061;SDS011;7630;50.306;8.566;2024-01-16T11:10:21;4.67;;;4.00;;
15061;SDS011;7630;50.306;8.566;2024-01-16T11:14:22;7.40;;;4.63;;
15061;SDS011;7630;50.306;8.566;2024-01-16T11:18:26;5.13;;;3.23;;
15061;SDS011;7630;50.306;8.566;2024-01-16T11:22:29;7.13;;;3.00;;
15061;SDS011;7630;50.306;8.566;2024-01-16T11:26:31;10.73;;;3.67;;
15061;SDS011;7630;50.306;8.566;2024-01-16T11:30:37;6.33;;;4.17;;
15061;SDS011;7630;50.306;8.566;2024-01-16T11:38:49;10.57;;;6.83;;
15061;SDS011;7630;50.306;8.566;2024-01-16T11:42:54;6.70;;;3.60;;
15061;SDS011;7630;50.306;8.566;2024-01-16T11:46:59;8.83;;;3.30;;
15061;SDS011;7630;50.306;8.566;2024-01-16T11:51:21;4.83;;;3.57;;
15061;SDS011;7630;50.306;8.566;2024-01-16T11:55:28;7.70;;;3.40;;
15061;SDS011;7630;50.306;8.566;2024-01-16T12:04:07;9.33;;;3.70;;
15061;SDS011;7630;50.306;8.566;2024-01-16T12:08:10;13.10;;;3.30;;
15061;SDS011;7630;50.306;8.566;2024-01-16T12:12:11;6.33;;;3.43;;
15061;SDS011;7630;50.306;8.566;2024-01-16T12:16:18;7.53;;;3.20;;
15061;SDS011;7630;50.306;8.566;2024-01-16T12:20:19;7.70;;;3.80;;
15061;SDS011;7630;50.306;8.566;2024-01-16T12:24:22;7.80;;;4.10;;
15061;SDS011;7630;50.306;8.566;2024-01-16T12:28:23;9.83;;;4.27;;
15061;SDS011;7630;50.306;8.566;2024-01-16T12:32:26;3.30;;;3.00;;
15061;SDS011;7630;50.306;8.566;2024-01-16T12:36:28;5.57;;;3.10;;
15061;SDS011;7630;50.306;8.566;2024-01-16T12:40:29;4.50;;;2.97;;
15061;SDS011;7630;50.306;8.566;2024-01-16T12:44:31;6.83;;;2.87;;
15061;SDS011;7630;50.306;8.566;2024-01-16T12:48:32;7.30;;;3.10;;
15061;SDS011;7630;50.306;8.566;2024-01-16T12:52:34;5.27;;;2.40;;
15061;SDS011;7630;50.306;8.566;2024-01-16T12:56:35;5.20;;;3.13;;
15061;SDS011;7630;50.306;8.566;2024-01-16T13:00:38;11.80;;;3.77;;
15061;SDS011;7630;50.306;8.566;2024-01-16T13:04:40;5.47;;;2.50;;
15061;SDS011;7630;50.306;8.566;2024-01-16T13:08:41;5.50;;;2.50;;
15061;SDS011;7630;50.306;8.566;2024-01-16T13:12:42;6.07;;;3.20;;
15061;SDS011;7630;50.306;8.566;2024-01-16T13:16:43;5.63;;;2.80;;
15061;SDS011;7630;50.306;8.566;2024-01-16T13:20:45;5.93;;;2.90;;
15061;SDS011;7630;50.306;8.566;2024-01-16T13:24:46;4.20;;;2.97;;
15061;SDS011;7630;50.306;8.566;2024-01-16T13:28:49;7.60;;;3.47;;
15061;SDS011;7630;50.306;8.566;2024-01-16T13:32:51;6.17;;;3.60;;
15061;SDS011;7630;50.306;8.566;2024-01-16T13:36:52;3.83;;;3.10;;
15061;SDS011;7630;50.306;8.566;2024-01-16T13:40:58;10.37;;;3.63;;
15061;SDS011;7630;50.306;8.566;2024-01-16T13:44:59;5.17;;;3.73;;
15061;SDS011;7630;50.306;8.566;2024-01-16T13:49:01;7.40;;;3.63;;
15061;SDS011;7630;50.306;8.566;2024-01-16T13:53:02;7.10;;;3.33;;
15061;SDS011;7630;50.306;8.566;2024-01-16T13:57:03;5.83;;;3.33;;
15061;SDS011;7630;50.306;8.566;2024-01-16T14:01:07;5.73;;;3.70;;
15061;SDS011;7630;50.306;8.566;2024-01-16T14:05:08;10.23;;;3.93;;
15061;SDS011;7630;50.306;8.566;2024-01-16T14:09:15;6.07;;;3.13;;
15061;SDS011;7630;50.306;8.566;2024-01-16T14:13:16;8.87;;;3.57;;
15061;SDS011;7630;50.306;8.566;2024-01-16T14:17:17;9.10;;;3.70;;
15061;SDS011;7630;50.306;8.566;2024-01-16T14:21:18;4.67;;;3.63;;
15061;SDS011;7630;50.306;8.566;2024-01-16T14:25:19;6.33;;;4.63;;
15061;SDS011;7630;50.306;8.566;2024-01-16T14:29:21;4.33;;;3.70;;
15061;SDS011;7630;50.306;8.566;2024-01-16T14:33:23;7.67;;;3.93;;
15061;SDS011;7630;50.306;8.566;2024-01-16T14:37:25;7.17;;;4.00;;
15061;SDS011;7630;50.306;8.566;2024-01-16T14:41:26;5.97;;;4.07;;
15061;SDS011;7630;50.306;8.566;2024-01-16T14:45:27;4.33;;;3.47;;
15061;SDS011;7630;50.306;8.566;2024-01-16T14:49:28;7.83;;;3.10;;
15061;SDS011;7630;50.306;8.566;2024-01-16T14:53:31;4.37;;;3.50;;
15061;SDS011;7630;50.306;8.566;2024-01-16T14:57:33;4.57;;;4.17;;
15061;SDS011;7630;50.306;8.566;2024-01-16T15:01:36;4.77;;;3.90;;
15061;SDS011;7630;50.306;8.566;2024-01-16T15:05:38;9.53;;;5.97;;
15061;SDS011;7630;50.306;8.566;2024-01-16T15:09:39;9.10;;;8.03;;
15061;SDS011;7630;50.306;8.566;2024-01-16T15:13:41;14.07;;;8.57;;
15061;SDS011;7630;50.306;8.566;2024-01-16T15:17:42;15.63;;;10.87;;
15061;SDS011;7630;50.306;8.566;2024-01-16T15:21:45;11.43;;;9.17;;
15061;SDS011;7630;50.306;8.566;2024-01-16T15:25:46;15.97;;;9.23;;
15061;SDS011;7630;50.306;8.566;2024-01-16T15:29:47;15.87;;;10.80;;
15061;SDS011;7630;50.306;8.566;2024-01-16T15:33:48;11.23;;;10.20;;
15061;SDS011;7630;50.306;8.566;2024-01-16T15:37:50;18.77;;;10.33;;
15061;SDS011;7630;50.306;8.566;2024-01-16T15:41:51;15.50;;;12.50;;
15061;SDS011;7630;50.306;8.566;2024-01-16T15:45:52;16.83;;;11.53;;
15061;SDS011;7630;50.306;8.566;2024-01-16T15:49:53;17.53;;;12.07;;
15061;SDS011;7630;50.306;8.566;2024-01-16T15:53:56;18.73;;;12.33;;
15061;SDS011;7630;50.306;8.566;2024-01-16T15:57:57;24.40;;;13.50;;
15061;SDS011;7630;50.306;8.566;2024-01-16T16:01:59;21.20;;;11.67;;
15061;SDS011;7630;50.306;8.566;2024-01-16T16:06:02;20.17;;;11.97;;
15061;SDS011;7630;50.306;8.566;2024-01-16T16:10:05;22.43;;;16.23;;
15061;SDS011;7630;50.306;8.566;2024-01-16T16:14:10;15.37;;;12.97;;
15061;SDS011;7630;50.306;8.566;2024-01-16T16:18:12;17.53;;;11.83;;
15061;SDS011;7630;50.306;8.566;2024-01-16T16:22:14;17.47;;;13.87;;
15061;SDS011;7630;50.306;8.566;2024-01-16T16:26:18;21.23;;;14.20;;
15061;SDS011;7630;50.306;8.566;2024-01-16T16:30:32;13.20;;;11.63;;
15061;SDS011;7630;50.306;8.566;2024-01-16T16:34:34;16.67;;;11.63;;
15061;SDS011;7630;50.306;8.566;2024-01-16T16:38:36;21.33;;;11.53;;
15061;SDS011;7630;50.306;8.566;2024-01-16T16:42:37;16.43;;;12.43;;
15061;SDS011;7630;50.306;8.566;2024-01-16T16:46:38;17.27;;;13.63;;
15061;SDS011;7630;50.306;8.566;2024-01-16T16:50:39;21.70;;;14.93;;
15061;SDS011;7630;50.306;8.566;2024-01-16T16:54:40;15.20;;;12.63;;
15061;SDS011;7630;50.306;8.566;2024-01-16T16:58:44;17.60;;;12.07;;
15061;SDS011;7630;50.306;8.566;2024-01-16T17:02:50;20.57;;;13.70;;
15061;SDS011;7630;50.306;8.566;2024-01-16T17:06:51;18.83;;;11.83;;
15061;SDS011;7630;50.306;8.566;2024-01-16T17:10:54;16.47;;;12.83;;
15061;SDS011;7630;50.306;8.566;2024-01-16T17:14:55;16.23;;;12.47;;
15061;SDS011;7630;50.306;8.566;2024-01-16T17:18:58;18.17;;;13.23;;
15061;SDS011;7630;50.306;8.566;2024-01-16T17:23:00;14.77;;;13.23;;
15061;SDS011;7630;50.306;8.566;2024-01-16T17:27:01;17.30;;;14.93;;
15061;SDS011;7630;50.306;8.566;2024-01-16T17:31:02;23.43;;;14.70;;
15061;SDS011;7630;50.306;8.566;2024-01-16T17:35:04;26.00;;;17.13;;
15061;SDS011;7630;50.306;8.566;2024-01-16T17:39:05;21.80;;;16.50;;
15061;SDS011;7630;50.306;8.566;2024-01-16T17:43:10;19.97;;;15.17;;
15061;SDS011;7630;50.306;8.566;2024-01-16T17:47:11;15.17;;;11.93;;
15061;SDS011;7630;50.306;8.566;2024-01-16T17:51:12;21.60;;;13.90;;
15061;SDS011;7630;50.306;8.566;2024-01-16T17:55:13;17.20;;;14.50;;
15061;SDS011;7630;50.306;8.566;2024-01-16T17:59:14;19.50;;;15.43;;
15061;SDS011;7630;50.306;8.566;2024-01-16T18:03:16;28.37;;;18.20;;
15061;SDS011;7630;50.306;8.566;2024-01-16T18:07:21;20.60;;;14.67;;
15061;SDS011;7630;50.306;8.566;2024-01-16T18:11:22;15.97;;;12.17;;
15061;SDS011;7630;50.306;8.566;2024-01-16T18:15:23;15.67;;;12.10;;
15061;SDS011;7630;50.306;8.566;2024-01-16T18:19:27;20.33;;;14.00;;
15061;SDS011;7630;50.306;8.566;2024-01-16T18:23:32;24.77;;;15.80;;
15061;SDS011;7630;50.306;8.566;2024-01-16T18:27:35;20.17;;;15.80;;
15061;SDS011;7630;50.306;8.566;2024-01-16T18:31:37;22.30;;;15.90;;
15061;SDS011;7630;50.306;8.566;2024-01-16T18:35:38;20.77;;;13.70;;
15061;SDS011;7630;50.306;8.566;2024-01-16T18:39:41;17.73;;;11.93;;
15061;SDS011;7630;50.306;8.566;2024-01-16T18:43:42;15.07;;;11.90;;
15061;SDS011;7630;50.306;8.566;2024-01-16T18:47:44;20.90;;;14.60;;
15061;SDS011;7630;50.306;8.566;2024-01-16T18:51:45;40.47;;;24.30;;
15061;SDS011;7630;50.306;8.566;2024-01-16T18:55:48;37.50;;;27.60;;
15061;SDS011;7630;50.306;8.566;2024-01-16T18:59:51;51.53;;;40.03;;
15061;SDS011;7630;50.306;8.566;2024-01-16T19:03:55;35.27;;;25.53;;
15061;SDS011;7630;50.306;8.566;2024-01-16T19:07:56;29.97;;;20.17;;
15061;SDS011;7630;50.306;8.566;2024-01-16T19:11:59;30.67;;;23.30;;
15061;SDS011;7630;50.306;8.566;2024-01-16T19:16:00;48.33;;;35.20;;
15061;SDS011;7630;50.306;8.566;2024-01-16T19:20:01;36.30;;;26.13;;
15061;SDS011;7630;50.306;8.566;2024-01-16T19:24:05;38.93;;;29.97;;
15061;SDS011;7630;50.306;8.566;2024-01-16T19:28:06;26.60;;;21.73;;
15061;SDS011;7630;50.306;8.566;2024-01-16T19:32:08;29.67;;;23.07;;
15061;SDS011;7630;50.306;8.566;2024-01-16T19:36:10;40.37;;;26.47;;
15061;SDS011;7630;50.306;8.566;2024-01-16T19:40:12;42.27;;;29.73;;
15061;SDS011;7630;50.306;8.566;2024-01-16T19:44:15;55.73;;;35.03;;
15061;SDS011;7630;50.306;8.566;2024-01-16T19:48:16;49.70;;;39.13;;
15061;SDS011;7630;50.306;8.566;2024-01-16T19:52:18;123.43;;;68.53;;
15061;SDS011;7630;50.306;8.566;2024-01-16T19:56:19;55.37;;;42.37;;
15061;SDS011;7630;50.306;8.566;2024-01-16T20:00:21;56.10;;;39.67;;
15061;SDS011;7630;50.306;8.566;2024-01-16T20:04:22;44.13;;;32.40;;
15061;SDS011;7630;50.306;8.566;2024-01-16T20:08:23;34.33;;;26.30;;
15061;SDS011;7630;50.306;8.566;2024-01-16T20:12:26;25.27;;;17.13;;
15061;SDS011;7630;50.306;8.566;2024-01-16T20:16:29;19.27;;;14.10;;
15061;SDS011;7630;50.306;8.566;2024-01-16T20:20:31;26.47;;;17.43;;
15061;SDS011;7630;50.306;8.566;2024-01-16T20:24:32;15.33;;;13.47;;
15061;SDS011;7630;50.306;8.566;2024-01-16T20:28:36;30.37;;;24.80;;
15061;SDS011;7630;50.306;8.566;2024-01-16T20:32:45;31.67;;;22.80;;
15061;SDS011;7630;50.306;8.566;2024-01-16T20:36:44;34.67;;;24.77;;
15061;SDS011;7630;50.306;8.566;2024-01-16T20:40:47;40.60;;;28.37;;
15061;SDS011;7630;50.306;8.566;2024-01-16T20:44:49;42.20;;;30.70;;
15061;SDS011;7630;50.306;8.566;2024-01-16T20:48:50;45.53;;;35.33;;
15061;SDS011;7630;50.306;8.566;2024-01-16T20:52:52;46.17;;;32.57;;
15061;SDS011;7630;50.306;8.566;2024-01-16T20:56:53;35.33;;;26.77;;
15061;SDS011;7630;50.306;8.566;2024-01-16T21:00:54;40.00;;;32.83;;
15061;SDS011;7630;50.306;8.566;2024-01-16T21:04:55;44.47;;;32.67;;
15061;SDS011;7630;50.306;8.566;2024-01-16T21:08:56;47.43;;;34.03;;
15061;SDS011;7630;50.306;8.566;2024-01-16T21:12:58;64.13;;;40.27;;
15061;SDS011;7630;50.306;8.566;2024-01-16T21:16:59;46.00;;;34.77;;
15061;SDS011;7630;50.306;8.566;2024-01-16T21:21:00;56.37;;;38.77;;
15061;SDS011;7630;50.306;8.566;2024-01-16T21:25:01;58.87;;;35.70;;
15061;SDS011;7630;50.306;8.566;2024-01-16T21:29:02;56.83;;;37.73;;
15061;SDS011;7630;50.306;8.566;2024-01-16T21:33:04;56.30;;;40.37;;
15061;SDS011;7630;50.306;8.566;2024-01-16T21:37:08;52.10;;;37.83;;
15061;SDS011;7630;50.306;8.566;2024-01-16T21:41:09;55.23;;;42.23;;
15061;SDS011;7630;50.306;8.566;2024-01-16T21:45:12;61.27;;;35.63;;
15061;SDS011;7630;50.306;8.566;2024-01-16T21:49:13;46.40;;;30.67;;
15061;SDS011;7630;50.306;8.566;2024-01-16T21:53:16;37.67;;;27.37;;
15061;SDS011;7630;50.306;8.566;2024-01-16T21:57:18;59.27;;;38.40;;
15061;SDS011;7630;50.306;8.566;2024-01-16T22:01:19;55.63;;;40.27;;
15061;SDS011;7630;50.306;8.566;2024-01-16T22:05:23;63.97;;;44.67;;
15061;SDS011;7630;50.306;8.566;2024-01-16T22:09:25;53.57;;;36.50;;
15061;SDS011;7630;50.306;8.566;2024-01-16T22:13:29;47.77;;;29.77;;
15061;SDS011;7630;50.306;8.566;2024-01-16T22:17:30;29.53;;;24.47;;
15061;SDS011;7630;50.306;8.566;2024-01-16T22:21:31;30.20;;;21.17;;
15061;SDS011;7630;50.306;8.566;2024-01-16T22:25:33;24.10;;;18.67;;
15061;SDS011;7630;50.306;8.566;2024-01-16T22:29:35;48.50;;;29.93;;
15061;SDS011;7630;50.306;8.566;2024-01-16T22:33:37;38.20;;;27.50;;
15061;SDS011;7630;50.306;8.566;2024-01-16T22:37:38;44.17;;;31.60;;
15061;SDS011;7630;50.306;8.566;2024-01-16T22:41:43;37.73;;;24.23;;
15061;SDS011;7630;50.306;8.566;2024-01-16T22:45:45;41.70;;;26.47;;
15061;SDS011;7630;50.306;8.566;2024-01-16T22:49:46;36.73;;;26.00;;
15061;SDS011;7630;50.306;8.566;2024-01-16T22:53:47;41.30;;;27.73;;
15061;SDS011;7630;50.306;8.566;2024-01-16T22:57:51;38.33;;;26.57;;
15061;SDS011;7630;50.306;8.566;2024-01-16T23:01:52;36.23;;;24.53;;
15061;SDS011;7630;50.306;8.566;2024-01-16T23:05:53;39.33;;;31.33;;
15061;SDS011;7630;50.306;8.566;2024-01-16T23:09:55;31.87;;;24.03;;
15061;SDS011;7630;50.306;8.566;2024-01-16T23:13:56;36.53;;;22.17;;
15061;SDS011;7630;50.306;8.566;2024-01-16T23:17:58;36.67;;;27.50;;
15061;SDS011;7630;50.306;8.566;2024-01-16T23:22:00;48.97;;;34.77;;
15061;SDS011;7630;50.306;8.566;2024-01-16T23:26:01;48.90;;;34.70;;
15061;SDS011;7630;50.306;8.566;2024-01-16T23:30:03;55.27;;;35.67;;
15061;SDS011;7630;50.306;8.566;2024-01-16T23:34:05;44.00;;;30.57;;
15061;SDS011;7630;50.306;8.566;2024-01-16T23:38:06;33.57;;;25.80;;
15061;SDS011;7630;50.306;8.566;2024-01-16T23:42:10;31.43;;;21.50;;
15061;SDS011;7630;50.306;8.566;2024-01-16T23:46:15;29.63;;;21.50;;
15061;SDS011;7630;50.306;8.566;2024-01-16T23:50:17;38.93;;;25.43;;
15061;SDS011;7630;50.306;8.566;2024-01-16T23:54:18;36.43;;;26.10;;
15061;SDS011;7630;50.306;8.566;2024-01-16T23:58:20;30.57;;;21.90;;
